Time;durP1;ratioP1;P1;durP2;ratioP2;P2;SDS_P1;SDS_P2;PMS_P1;PMS_P2;Temp;Humidity;BMP_temperature;BMP_pressure;BME280_temperature;BME280_humidity;BME280_pressure;Samples;Min_cycle;Max_cycle;Signal;HPM_P1;HPM_P2
2021/05/27 00:01:41;;;;;;;0.15;0.15;;;;;;;18.47;53.92;100762.00;146704;585;47905;-93
2021/05/27 00:04:11;;;;;;;0.10;0.10;;;;;;;18.49;53.69;100769.91;146710;673;46020;-90
2021/05/27 00:06:42;;;;;;;0.10;0.10;;;;;;;18.47;54.07;100761.16;146709;607;46014;-90
2021/05/27 00:09:12;;;;;;;0.15;0.15;;;;;;;18.45;53.73;100755.91;146713;597;45021;-92
2021/05/27 00:11:43;;;;;;;0.03;0.03;;;;;;;18.42;54.01;100764.94;146703;603;46016;-94
2021/05/27 00:14:21;;;;;;;0.05;0.05;;;;;;;18.41;54.08;100765.91;146710;597;46020;-90
2021/05/27 00:16:52;;;;;;;0.00;0.00;;;;;;;18.40;53.68;100764.19;146710;587;45905;-89
2021/05/27 00:19:23;;;;;;;0.05;0.05;;;;;;;18.41;53.20;100763.25;146709;630;46020;-89
2021/05/27 00:21:54;;;;;;;0.00;0.00;;;;;;;18.47;53.46;100770.00;146708;604;46012;-91
2021/05/27 00:24:24;;;;;;;0.00;0.00;;;;;;;18.52;53.60;100772.34;146709;571;46021;-89
2021/05/27 00:26:55;;;;;;;0.10;0.10;;;;;;;18.54;53.70;100767.81;146707;569;46012;-91
2021/05/27 00:29:26;;;;;;;0.13;0.13;;;;;;;18.54;53.13;100763.34;146710;676;46020;-90
2021/05/27 00:31:56;;;;;;;0.03;0.03;;;;;;;18.53;54.03;100758.13;146706;624;46017;-91
2021/05/27 00:34:27;;;;;;;0.10;0.10;;;;;;;18.52;53.06;100765.25;146712;569;46010;-92
2021/05/27 00:36:57;;;;;;;0.00;0.00;;;;;;;18.49;53.40;100762.75;146708;572;46012;-92
2021/05/27 00:39:28;;;;;;;0.00;0.00;;;;;;;18.46;54.10;100765.63;146712;632;46021;-89
2021/05/27 00:41:58;;;;;;;0.00;0.00;;;;;;;18.42;53.63;100772.91;146711;639;46012;-89
2021/05/27 00:44:33;;;;;;;0.13;0.13;;;;;;;18.37;53.86;100772.34;146710;636;47010;-87
2021/05/27 00:47:08;;;;;;;0.10;0.10;;;;;;;18.34;53.87;100777.81;146707;619;46014;-88
2021/05/27 00:49:39;;;;;;;0.00;0.00;;;;;;;18.31;54.26;100770.03;146710;580;46020;-92
2021/05/27 00:52:13;;;;;;;0.13;0.13;;;;;;;18.30;53.70;100768.31;146706;569;46016;-88
2021/05/27 00:54:43;;;;;;;0.00;0.00;;;;;;;18.27;53.74;100755.22;146711;632;46020;-91
2021/05/27 00:57:34;;;;;;;0.08;0.08;;;;;;;18.32;53.53;100763.78;146709;614;46016;-91
2021/05/27 01:00:17;;;;;;;0.10;0.10;;;;;;;18.32;53.60;100755.81;146709;604;46020;-88
2021/05/27 01:02:48;;;;;;;0.08;0.08;;;;;;;18.31;54.17;100756.75;146706;572;47013;-89
2021/05/27 01:05:19;;;;;;;0.00;0.00;;;;;;;18.27;53.76;100758.75;146711;569;46010;-89
2021/05/27 01:07:50;;;;;;;0.00;0.00;;;;;;;18.24;53.26;100760.72;146706;573;46016;-91
2021/05/27 01:10:21;;;;;;;0.10;0.10;;;;;;;18.21;53.21;100759.09;146710;586;47010;-89
2021/05/27 01:12:51;;;;;;;0.10;0.10;;;;;;;18.14;53.36;100751.59;146708;601;46012;-87
2021/05/27 01:15:31;;;;;;;0.00;0.00;;;;;;;18.07;53.21;100754.63;146710;566;46020;-90
2021/05/27 01:18:16;;;;;;;0.05;0.05;;;;;;;17.99;53.95;100756.88;146707;570;46016;-89
2021/05/27 01:20:50;;;;;;;0.20;0.10;;;;;;;17.93;53.80;100755.44;146711;575;47010;-89
2021/05/27 01:23:22;;;;;;;0.13;0.13;;;;;;;17.87;54.09;100753.09;146709;587;46016;-90
2021/05/27 01:25:58;;;;;;;0.05;0.05;;;;;;;17.81;53.70;100750.78;146713;592;46021;-91
2021/05/27 01:28:33;;;;;;;0.00;0.00;;;;;;;17.72;54.18;100744.19;146710;569;46012;-89
2021/05/27 01:31:07;;;;;;;0.00;0.00;;;;;;;17.67;54.63;100742.75;146711;602;47010;-91
2021/05/27 01:33:38;;;;;;;0.00;0.00;;;;;;;17.61;54.51;100738.66;146709;594;46012;-92
2021/05/27 01:36:10;;;;;;;0.10;0.10;;;;;;;17.58;53.96;100747.66;146713;598;45020;-88
2021/05/27 01:38:40;;;;;;;0.00;0.00;;;;;;;17.53;54.74;100740.88;146709;611;46013;-88
2021/05/27 01:41:11;;;;;;;0.10;0.10;;;;;;;17.50;54.47;100746.38;146712;688;46021;-91
2021/05/27 01:43:41;;;;;;;0.00;0.00;;;;;;;17.49;54.70;100747.31;146709;566;46014;-89
2021/05/27 01:46:12;;;;;;;0.00;0.00;;;;;;;17.48;54.86;100753.56;146714;564;46010;-90
2021/05/27 01:48:42;;;;;;;0.10;0.10;;;;;;;17.46;54.48;100750.16;146708;577;46016;-88
2021/05/27 01:51:13;;;;;;;0.50;0.20;;;;;;;17.40;54.98;100746.91;146711;575;46020;-89
2021/05/27 01:53:44;;;;;;;0.32;0.20;;;;;;;17.33;55.48;100745.53;146713;607;45017;-87
2021/05/27 01:56:15;;;;;;;0.00;0.00;;;;;;;17.27;55.28;100751.16;146710;570;47010;-88
2021/05/27 01:58:45;;;;;;;0.00;0.00;;;;;;;17.23;55.18;100750.47;146708;583;46012;-91
2021/05/27 02:01:16;;;;;;;0.00;0.00;;;;;;;17.20;55.44;100744.50;146712;677;46011;-89
2021/05/27 02:03:46;;;;;;;0.00;0.00;;;;;;;17.17;56.11;100739.38;146706;659;46014;-90
2021/05/27 02:06:17;;;;;;;0.00;0.00;;;;;;;17.16;54.96;100749.09;146712;585;46010;-90
2021/05/27 02:11:40;;;;;;;0.15;0.13;;;;;;;17.15;54.53;100755.34;146707;597;46010;-90
2021/05/27 02:14:13;;;;;;;0.00;0.00;;;;;;;17.15;55.14;100758.00;146707;584;46014;-92
2021/05/27 02:16:45;;;;;;;0.00;0.00;;;;;;;17.14;54.94;100764.25;146712;604;46011;-91
2021/05/27 02:19:15;;;;;;;0.43;0.10;;;;;;;17.15;55.06;100765.09;146707;584;46014;-89
2021/05/27 02:21:46;;;;;;;0.10;0.10;;;;;;;17.14;54.88;100761.63;146712;562;46010;-90
2021/05/27 02:24:17;;;;;;;0.00;0.00;;;;;;;17.14;55.07;100760.75;146709;643;46016;-90
2021/05/27 02:26:47;;;;;;;0.60;0.22;;;;;;;17.16;55.19;100762.37;146713;569;46020;-89
2021/05/27 02:29:18;;;;;;;0.20;0.20;;;;;;;17.19;54.93;100767.50;146708;601;46016;-91
2021/05/27 02:31:49;;;;;;;0.00;0.00;;;;;;;17.20;55.33;100765.72;146712;583;46010;-88
2021/05/27 02:34:20;;;;;;;0.08;0.08;;;;;;;17.19;54.49;100764.00;146709;618;46016;-90
2021/05/27 02:36:50;;;;;;;0.08;0.08;;;;;;;17.17;54.51;100768.56;146714;586;46010;-89
2021/05/27 02:39:21;;;;;;;0.00;0.00;;;;;;;17.17;55.19;100773.84;146706;686;46016;-87
2021/05/27 02:41:51;;;;;;;0.00;0.00;;;;;;;17.18;55.29;100779.06;146713;569;45020;-90
2021/05/27 02:44:22;;;;;;;0.10;0.10;;;;;;;17.20;54.33;100781.66;146703;635;46016;-89
2021/05/27 02:46:53;;;;;;;0.00;0.00;;;;;;;17.20;54.87;100776.34;146714;581;45021;-89
2021/05/27 02:49:24;;;;;;;0.65;0.30;;;;;;;17.17;54.49;100769.41;146708;709;46014;-88
2021/05/27 02:51:54;;;;;;;0.00;0.00;;;;;;;17.15;54.63;100763.31;146711;564;46010;-91
2021/05/27 02:54:25;;;;;;;0.17;0.17;;;;;;;17.09;54.58;100772.44;146708;570;46013;-90
2021/05/27 02:56:59;;;;;;;0.00;0.00;;;;;;;17.04;55.34;100771.00;146712;569;46020;-90
2021/05/27 02:59:30;;;;;;;0.00;0.00;;;;;;;17.02;54.64;100770.25;146713;581;46012;-90
2021/05/27 03:02:00;;;;;;;0.00;0.00;;;;;;;16.99;54.86;100765.06;146712;578;46010;-90
2021/05/27 03:04:31;;;;;;;0.10;0.10;;;;;;;17.00;55.13;100772.09;146712;617;46012;-90
2021/05/27 03:07:01;;;;;;;0.00;0.00;;;;;;;16.96;54.78;100768.75;146714;640;46010;-92
2021/05/27 03:09:32;;;;;;;0.00;0.00;;;;;;;16.92;55.13;100776.03;146708;741;46014;-91
2021/05/27 03:12:03;;;;;;;0.08;0.08;;;;;;;16.89;55.52;100772.69;146712;631;46020;-89
2021/05/27 03:14:33;;;;;;;0.10;0.10;;;;;;;16.85;54.80;100781.69;146712;612;46012;-91
2021/05/27 03:17:04;;;;;;;0.00;0.00;;;;;;;16.84;55.01;100774.69;146712;593;46020;-91
2021/05/27 03:19:34;;;;;;;0.00;0.00;;;;;;;16.83;55.05;100778.28;146709;569;46016;-91
2021/05/27 03:22:05;;;;;;;0.00;0.00;;;;;;;16.83;54.81;100784.44;146712;565;46020;-91
2021/05/27 03:24:35;;;;;;;0.00;0.00;;;;;;;16.83;55.57;100784.44;146707;651;46017;-91
2021/05/27 03:27:06;;;;;;;0.10;0.10;;;;;;;16.82;54.71;100792.47;146712;687;46020;-90
2021/05/27 03:29:38;;;;;;;0.00;0.00;;;;;;;16.83;55.12;100784.44;146711;578;46012;-89
2021/05/27 03:32:08;;;;;;;0.00;0.00;;;;;;;16.83;54.52;100784.44;146711;575;46020;-91
2021/05/27 03:34:39;;;;;;;0.00;0.00;;;;;;;16.84;54.57;100790.59;146713;606;46012;-92
2021/05/27 03:37:09;;;;;;;0.00;0.00;;;;;;;16.83;54.64;100794.19;146711;573;46020;-89
2021/05/27 03:40:09;;;;;;;0.10;0.10;;;;;;;16.83;55.16;100794.19;146711;608;46013;-92
2021/05/27 03:42:31;;;;;;;0.00;0.00;;;;;;;16.84;54.57;100795.88;146714;606;46018;-89
2021/05/27 03:45:06;;;;;;;0.00;0.00;;;;;;;16.84;55.24;100804.72;146709;565;46015;-90
2021/05/27 03:47:38;;;;;;;0.00;0.00;;;;;;;16.88;54.81;100808.06;146711;623;46020;-89
2021/05/27 03:50:11;;;;;;;0.00;0.00;;;;;;;16.91;54.82;100805.28;146708;581;46012;-91
2021/05/27 03:52:43;;;;;;;0.00;0.00;;;;;;;16.94;55.24;100802.47;146714;576;46010;-92
2021/05/27 03:55:18;;;;;;;0.08;0.08;;;;;;;16.97;55.18;100798.81;146709;570;46016;-91
2021/05/27 03:57:51;;;;;;;0.03;0.03;;;;;;;16.99;54.65;100803.09;146711;571;46020;-89
2021/05/27 04:03:13;;;;;;;0.00;0.00;;;;;;;17.02;55.55;100802.06;146714;576;46018;-90
2021/05/27 04:08:32;;;;;;;0.10;0.10;;;;;;;17.08;54.98;100807.03;146712;581;47011;-92
2021/05/27 04:11:03;;;;;;;0.03;0.03;;;;;;;17.13;55.24;100807.66;146712;628;46012;-90
2021/05/27 04:13:33;;;;;;;0.08;0.08;;;;;;;17.18;54.92;100812.69;146713;585;46020;-91
2021/05/27 04:16:09;;;;;;;0.00;0.00;;;;;;;17.23;54.81;100811.50;146712;570;46013;-91
2021/05/27 04:18:48;;;;;;;;;;;;;;;17.32;54.79;100817.25;146718;979;46022;-87
2021/05/27 04:21:19;;;;;;;0.00;0.00;;;;;;;17.41;54.54;100820.28;146713;588;46016;-89
2021/05/27 04:23:50;;;;;;;0.00;0.00;;;;;;;17.51;54.50;100819.75;146714;586;46008;-89
2021/05/27 04:26:21;;;;;;;0.10;0.10;;;;;;;17.62;54.02;100828.00;146710;605;46014;-90
2021/05/27 04:28:51;;;;;;;0.25;0.20;;;;;;;17.73;53.89;100827.37;146700;581;48008;-90
2021/05/27 04:31:22;;;;;;;0.00;0.00;;;;;;;17.80;53.65;100825.22;146709;570;46016;-89
2021/05/27 04:33:54;;;;;;;0.00;0.00;;;;;;;17.94;53.19;100833.31;146710;631;46008;-90
2021/05/27 04:36:31;;;;;;;0.10;0.10;;;;;;;18.04;53.70;100828.31;146705;589;47018;-89
2021/05/27 04:39:02;;;;;;;0.00;0.00;;;;;;;18.14;53.47;100836.59;146711;615;46021;-90
2021/05/27 04:41:32;;;;;;;0.00;0.00;;;;;;;18.22;52.92;100835.25;146710;581;46016;-89
2021/05/27 04:44:03;;;;;;;0.00;0.00;;;;;;;18.31;53.06;100833.84;146714;654;46020;-89
2021/05/27 04:46:34;;;;;;;0.00;0.00;;;;;;;18.41;53.33;100844.78;146709;600;46017;-90
2021/05/27 04:49:04;;;;;;;0.10;0.10;;;;;;;18.50;52.70;100840.75;146711;590;45996;-91
2021/05/27 04:51:35;;;;;;;0.13;0.13;;;;;;;18.59;52.76;100832.22;146714;614;46010;-90
2021/05/27 04:54:06;;;;;;;0.25;0.10;;;;;;;18.68;52.40;100828.97;146714;571;46008;-93
2021/05/27 04:56:36;;;;;;;0.00;0.00;;;;;;;18.77;52.53;100838.22;146710;569;46016;-91
2021/05/27 04:59:07;;;;;;;0.10;0.10;;;;;;;18.87;52.17;100827.88;146713;591;46020;-90
2021/05/27 05:01:37;;;;;;;0.00;0.00;;;;;;;18.96;52.19;100835.34;146710;564;46014;-88
2021/05/27 05:04:08;;;;;;;0.22;0.20;;;;;;;19.05;52.01;100839.22;146716;570;45020;-90
2021/05/27 05:06:39;;;;;;;0.00;0.00;;;;;;;19.15;51.55;100842.16;146708;624;46016;-89
2021/05/27 05:09:09;;;;;;;0.00;0.00;;;;;;;19.20;51.63;100829.44;146712;609;46020;-91
2021/05/27 05:11:40;;;;;;;0.10;0.10;;;;;;;19.32;51.68;100839.31;146710;577;46010;-91
2021/05/27 05:14:10;;;;;;;0.10;0.10;;;;;;;19.41;52.06;100835.22;146712;642;47008;-91
2021/05/27 05:16:41;;;;;;;0.65;0.10;;;;;;;19.51;52.15;100840.81;146708;573;46902;-90
2021/05/27 05:19:12;;;;;;;0.03;0.03;;;;;;;19.58;51.90;100837.66;146713;578;46020;-89
2021/05/27 05:21:42;;;;;;;0.10;0.10;;;;;;;19.67;52.28;100844.22;146709;604;46015;-92
2021/05/27 05:24:13;;;;;;;0.10;0.10;;;;;;;19.75;52.34;100841.03;146715;575;46008;-93
2021/05/27 05:26:43;;;;;;;0.00;0.00;;;;;;;19.84;52.19;100842.31;146711;583;46014;-91
2021/05/27 05:29:14;;;;;;;0.00;0.00;;;;;;;19.92;52.89;100838.19;146713;586;46021;-91
2021/05/27 05:31:44;;;;;;;0.00;0.00;;;;;;;20.01;52.63;100841.19;146709;618;46010;-86
2021/05/27 05:34:15;;;;;;;0.00;0.00;;;;;;;20.06;51.99;100845.25;146712;571;47008;-91
2021/05/27 05:36:46;;;;;;;0.00;0.00;;;;;;;20.14;52.02;100843.91;146709;572;46016;-90
2021/05/27 05:39:16;;;;;;;0.10;0.10;;;;;;;20.20;51.75;100836.38;146715;570;46008;-90
2021/05/27 05:41:47;;;;;;;0.15;0.10;;;;;;;20.28;51.81;100828.72;146711;607;46010;-93
2021/05/27 05:44:18;;;;;;;0.10;0.10;;;;;;;20.36;51.71;100827.34;146712;593;47008;-90
2021/05/27 05:46:49;;;;;;;0.10;0.10;;;;;;;20.44;51.66;100827.69;146713;681;45020;-90
2021/05/27 05:49:19;;;;;;;0.00;0.00;;;;;;;20.52;51.10;100822.66;146714;576;46008;-91
2021/05/27 05:51:50;;;;;;;0.17;0.17;;;;;;;20.58;50.69;100819.56;146712;584;46015;-90
2021/05/27 05:54:20;;;;;;;0.08;0.08;;;;;;;20.66;50.34;100831.56;146711;607;46008;-86
2021/05/27 05:56:51;;;;;;;0.32;0.20;;;;;;;20.71;50.70;100826.75;146707;598;46014;-90
2021/05/27 05:59:21;;;;;;;0.00;0.00;;;;;;;20.77;50.41;100837.03;146718;566;45009;-92
2021/05/27 06:01:52;;;;;;;0.00;0.00;;;;;;;20.84;50.23;100829.44;146704;606;46010;-92
2021/05/27 06:04:23;;;;;;;0.10;0.10;;;;;;;20.91;49.38;100830.72;146714;563;46020;-92
2021/05/27 06:06:53;;;;;;;0.10;0.10;;;;;;;20.97;49.23;100838.31;146710;569;46011;-92
2021/05/27 06:09:25;;;;;;;0.10;0.10;;;;;;;21.03;49.11;100831.69;146710;573;46008;-90
2021/05/27 06:11:56;;;;;;;0.10;0.10;;;;;;;21.09;48.43;100832.12;146711;565;46010;-91
2021/05/27 06:14:27;;;;;;;0.00;0.00;;;;;;;21.13;48.55;100825.59;146715;603;46008;-89
2021/05/27 06:16:58;;;;;;;0.20;0.10;;;;;;;21.20;47.50;100819.81;146710;605;46028;-91
2021/05/27 06:19:28;;;;;;;0.00;0.00;;;;;;;21.25;48.01;100818.50;146715;569;46008;-91
2021/05/27 06:22:00;;;;;;;0.10;0.10;;;;;;;21.33;47.73;100825.97;146711;571;46010;-89
2021/05/27 06:24:30;;;;;;;0.28;0.28;;;;;;;21.39;47.23;100822.88;146715;593;46008;-92
2021/05/27 06:27:01;;;;;;;0.22;0.20;;;;;;;21.45;47.57;100822.44;146711;611;46010;-91
2021/05/27 06:29:31;;;;;;;0.10;0.10;;;;;;;21.52;47.83;100824.69;146716;602;45021;-90
2021/05/27 06:32:02;;;;;;;0.00;0.00;;;;;;;21.59;47.31;100820.63;146710;709;46016;-91
2021/05/27 06:34:33;;;;;;;0.00;0.00;;;;;;;21.66;47.13;100823.69;146713;618;46018;-93
2021/05/27 06:37:04;;;;;;;0.10;0.10;;;;;;;21.73;46.41;100830.28;146708;587;46019;-90
2021/05/27 06:39:34;;;;;;;0.00;0.00;;;;;;;21.78;46.28;100828.12;146709;589;46008;-91
2021/05/27 06:42:05;;;;;;;0.10;0.10;;;;;;;21.85;46.32;100828.53;146710;576;46014;-90
2021/05/27 06:44:36;;;;;;;0.40;0.13;;;;;;;21.92;45.28;100827.13;146715;598;46009;-88
2021/05/27 06:47:07;;;;;;;0.30;0.30;;;;;;;21.97;45.79;100830.31;146711;581;46010;-92
2021/05/27 06:49:37;;;;;;;0.10;0.10;;;;;;;22.03;45.49;100837.84;146712;597;46008;-89
2021/05/27 06:52:08;;;;;;;0.00;0.00;;;;;;;22.10;45.20;100839.12;146711;619;46014;-92
2021/05/27 06:54:39;;;;;;;3.60;0.20;;;;;;;22.17;45.30;100838.66;146718;625;45008;-93
2021/05/27 06:57:09;;;;;;;0.10;0.10;;;;;;;22.22;44.98;100837.34;146708;570;46018;-91
2021/05/27 06:59:40;;;;;;;0.55;0.20;;;;;;;22.27;44.66;100837.00;146713;622;47008;-90
2021/05/27 07:02:10;;;;;;;0.00;0.00;;;;;;;22.32;44.61;100832.12;146707;589;46016;-91
2021/05/27 07:04:41;;;;;;;0.10;0.10;;;;;;;22.37;44.75;100829.16;146712;590;46020;-91
2021/05/27 07:07:11;;;;;;;0.10;0.10;;;;;;;22.42;44.59;100827.84;146710;597;46010;-92
2021/05/27 07:09:42;;;;;;;0.00;0.00;;;;;;;22.49;44.07;100830.91;146713;580;46020;-91
2021/05/27 07:12:13;;;;;;;0.10;0.10;;;;;;;22.54;43.92;100827.88;146710;599;46016;-91
2021/05/27 07:14:44;;;;;;;0.00;0.00;;;;;;;22.59;43.41;100815.00;146712;643;46020;-89
2021/05/27 07:17:15;;;;;;;0.00;0.00;;;;;;;22.66;43.74;100829.59;146709;579;46014;-90
2021/05/27 07:19:45;;;;;;;0.00;0.00;;;;;;;22.71;43.29;100827.41;146711;577;46020;-90
2021/05/27 07:22:16;;;;;;;0.00;0.00;;;;;;;22.77;43.69;100821.59;146712;628;46010;-92
2021/05/27 07:24:47;;;;;;;0.13;0.13;;;;;;;22.85;43.67;100814.78;146712;563;46020;-92
2021/05/27 07:27:18;;;;;;;0.10;0.10;;;;;;;22.90;43.74;100810.78;146711;555;46015;-92
2021/05/27 07:29:49;;;;;;;0.00;0.00;;;;;;;22.98;43.49;100810.19;146711;564;46021;-89
2021/05/27 07:32:20;;;;;;;0.10;0.10;;;;;;;23.04;43.43;100800.81;146710;604;46016;-90
2021/05/27 07:34:50;;;;;;;0.03;0.03;;;;;;;23.11;43.39;100810.91;146716;588;46008;-90
2021/05/27 07:37:21;;;;;;;0.00;0.00;;;;;;;23.18;43.49;100800.56;146709;595;46014;-88
2021/05/27 07:39:51;;;;;;;0.43;0.43;;;;;;;23.26;43.62;100800.81;146710;612;46020;-91
2021/05/27 07:42:22;;;;;;;0.00;0.00;;;;;;;23.34;42.68;100802.87;146708;570;46015;-90
2021/05/27 07:44:53;;;;;;;0.10;0.10;;;;;;;23.37;41.92;100791.91;146710;567;46021;-91
2021/05/27 07:47:23;;;;;;;0.10;0.10;;;;;;;23.43;41.32;100798.63;146708;607;46016;-90
2021/05/27 07:49:54;;;;;;;0.28;0.20;;;;;;;23.48;41.50;100799.09;146712;564;45021;-87
2021/05/27 07:52:24;;;;;;;0.22;0.10;;;;;;;23.52;41.26;100797.84;146709;570;46016;-86
2021/05/27 07:54:55;;;;;;;0.20;0.20;;;;;;;23.57;41.38;100795.66;146709;631;46020;-86
2021/05/27 07:57:25;;;;;;;0.40;0.30;;;;;;;23.64;41.15;100793.34;146707;600;46015;-85
2021/05/27 07:59:56;;;;;;;0.10;0.10;;;;;;;23.69;40.69;100792.94;146708;601;46021;-87
2021/05/27 08:02:27;;;;;;;0.00;0.00;;;;;;;23.75;40.09;100798.66;146708;565;47010;-89
2021/05/27 08:04:57;;;;;;;0.10;0.10;;;;;;;23.80;39.49;100800.97;146707;648;46020;-91
2021/05/27 08:07:28;;;;;;;0.37;0.37;;;;;;;23.86;39.65;100803.13;146708;616;46010;-87
2021/05/27 08:09:58;;;;;;;0.15;0.15;;;;;;;23.92;39.91;100801.78;146710;692;46020;-88
2021/05/27 08:12:29;;;;;;;0.20;0.20;;;;;;;23.99;39.37;100814.56;146708;603;46015;-88
2021/05/27 08:15:00;;;;;;;0.00;0.00;;;;;;;24.05;39.71;100813.22;146710;569;45037;-88
2021/05/27 08:17:30;;;;;;;0.10;0.10;;;;;;;24.14;40.03;100816.97;146707;634;46010;-89
2021/05/27 08:20:01;;;;;;;0.10;0.10;;;;;;;24.20;40.44;100816.44;146712;719;46009;-87
2021/05/27 08:22:32;;;;;;;0.00;0.00;;;;;;;24.27;40.80;100806.03;146708;596;46014;-86
2021/05/27 08:25:07;;;;;;;0.30;0.30;;;;;;;24.34;40.39;100809.91;146712;585;46022;-89
2021/05/27 08:27:37;;;;;;;0.10;0.10;;;;;;;24.41;39.71;100813.78;146709;747;46011;-87
2021/05/27 08:30:09;;;;;;;0.10;0.10;;;;;;;24.47;38.83;100810.56;146711;570;46008;-88
2021/05/27 08:32:39;;;;;;;0.35;0.17;;;;;;;24.51;38.96;100808.47;146708;623;46016;-88
2021/05/27 08:35:11;;;;;;;0.00;0.00;;;;;;;24.56;39.07;100806.22;146713;564;46008;-88
2021/05/27 08:37:41;;;;;;;0.10;0.10;;;;;;;24.65;39.26;100810.00;146703;603;47902;-87
2021/05/27 08:40:13;;;;;;;0.00;0.00;;;;;;;24.72;39.14;100805.81;146712;757;46008;-86
2021/05/27 08:42:44;;;;;;;11.30;1.05;;;;;;;24.80;39.24;100805.97;146706;596;46017;-88
2021/05/27 08:45:15;;;;;;;0.10;0.10;;;;;;;24.88;38.81;100804.47;146709;587;47008;-86
2021/05/27 08:47:46;;;;;;;0.10;0.10;;;;;;;24.93;38.69;100800.41;146704;611;46016;-87
2021/05/27 08:50:17;;;;;;;0.10;0.10;;;;;;;25.00;38.73;100804.25;146710;709;46021;-85
2021/05/27 08:52:47;;;;;;;0.10;0.10;;;;;;;25.06;38.54;100802.84;146711;615;45021;-85
2021/05/27 08:55:18;;;;;;;0.08;0.08;;;;;;;25.13;38.52;100803.16;146710;598;46020;-87
2021/05/27 08:57:48;;;;;;;0.20;0.20;;;;;;;25.19;38.59;100794.53;146705;619;46017;-87
2021/05/27 09:00:20;;;;;;;0.10;0.10;;;;;;;25.27;38.25;100801.94;146709;608;46020;-88
2021/05/27 09:02:57;;;;;;;0.30;0.10;;;;;;;25.35;37.83;100804.81;146709;712;46016;-87
2021/05/27 09:05:31;;;;;;;0.13;0.10;;;;;;;25.44;37.84;100804.00;146709;637;46008;-85
2021/05/27 09:08:08;;;;;;;0.10;0.10;;;;;;;25.53;37.50;100798.78;146709;571;46014;-85
2021/05/27 09:10:47;;;;;;;0.20;0.20;;;;;;;25.61;37.43;100796.25;146712;664;46020;-85
2021/05/27 09:13:23;;;;;;;1.27;0.20;;;;;;;25.70;37.28;100802.63;146706;600;46017;-86
2021/05/27 09:16:11;;;;;;;0.00;0.00;;;;;;;25.81;37.22;100797.13;146709;598;46020;-85
2021/05/27 09:18:44;;;;;;;0.70;0.30;;;;;;;25.92;37.05;100788.94;146708;610;46010;-85
2021/05/27 09:21:16;;;;;;;0.00;0.00;;;;;;;26.02;36.88;100772.81;146712;587;46021;-87
2021/05/27 09:23:52;;;;;;;0.00;0.00;;;;;;;26.12;36.46;100770.13;146709;576;46010;-85
2021/05/27 09:26:22;;;;;;;0.00;0.00;;;;;;;26.20;36.70;100769.41;146711;620;46020;-86
2021/05/27 09:29:11;;;;;;;0.08;0.08;;;;;;;26.29;36.12;100755.09;146707;613;46016;-86
2021/05/27 09:32:04;;;;;;;0.65;0.32;;;;;;;26.39;36.03;100745.16;146712;581;46008;-85
2021/05/27 09:34:53;;;;;;;0.00;0.00;;;;;;;26.15;35.41;100673.84;146706;571;46017;-87
2021/05/27 09:37:29;;;;;;;0.00;0.00;;;;;;;26.57;35.24;100729.06;146712;576;46020;-87
2021/05/27 09:40:02;;;;;;;0.10;0.10;;;;;;;26.64;35.19;100714.06;146709;582;47010;-87
2021/05/27 09:42:51;;;;;;;0.00;0.00;;;;;;;26.75;35.16;100720.25;146713;564;46021;-86
2021/05/27 09:45:23;;;;;;;0.00;0.00;;;;;;;26.82;35.07;100708.75;146704;646;46902;-86
2021/05/27 09:47:54;;;;;;;0.13;0.13;;;;;;;26.74;33.73;100705.97;146710;574;46010;-76
2021/05/27 09:50:32;;;;;;;0.05;0.05;;;;;;;26.59;34.70;100705.56;146712;606;45017;-75
2021/05/27 09:53:15;;;;;;;0.10;0.10;;;;;;;26.54;34.50;100697.06;146710;579;46020;-77
2021/05/27 09:55:46;;;;;;;0.10;0.10;;;;;;;26.49;34.32;100699.34;146705;572;47010;-75
2021/05/27 09:58:17;;;;;;;0.00;0.00;;;;;;;26.56;34.38;100700.47;146708;657;46021;-76
2021/05/27 10:00:50;;;;;;;0.00;0.00;;;;;;;26.59;34.14;100693.97;146471;70;192416;-76
2021/05/27 10:03:40;;;;;;;0.00;0.00;;;;;;;26.52;34.41;100662.22;146713;649;45020;-76
2021/05/27 10:06:12;;;;;;;0.10;0.10;;;;;;;26.84;33.86;100692.44;146707;594;46010;-75
2021/05/27 10:08:56;;;;;;;0.00;0.00;;;;;;;26.72;34.41;100661.31;146711;569;46020;-75
2021/05/27 10:11:27;;;;;;;0.10;0.10;;;;;;;26.96;34.03;100685.84;146709;587;46016;-76
2021/05/27 10:14:00;;;;;;;0.32;0.30;;;;;;;26.94;33.97;100687.87;146709;627;46021;-74
2021/05/27 10:16:31;;;;;;;0.00;0.00;;;;;;;26.98;34.24;100677.63;146708;575;46014;-75
2021/05/27 10:19:01;;;;;;;0.10;0.10;;;;;;;27.05;33.77;100689.50;146712;570;46008;-76
2021/05/27 10:21:32;;;;;;;0.20;0.20;;;;;;;26.97;34.40;100689.38;146707;570;47007;-76
2021/05/27 10:24:03;;;;;;;0.00;0.00;;;;;;;27.02;34.25;100690.66;146712;631;45022;-74
2021/05/27 10:26:34;;;;;;;0.10;0.10;;;;;;;27.13;34.41;100700.38;146710;610;46011;-75
2021/05/27 10:29:06;;;;;;;0.17;0.10;;;;;;;27.18;33.95;100700.75;146714;585;45039;-75
2021/05/27 10:31:46;;;;;;;0.10;0.10;;;;;;;27.23;34.07;100699.44;146711;623;46014;-77
2021/05/27 10:35:00;;;;;;;0.17;0.10;;;;;;;27.09;34.90;100695.41;146711;586;46009;-76
2021/05/27 10:37:56;;;;;;;0.35;0.20;;;;;;;26.90;34.65;100661.38;146708;601;46016;-75
2021/05/27 10:40:38;;;;;;;1.85;0.55;;;;;;;27.07;33.80;100687.50;146712;598;45020;-76
2021/05/27 10:43:14;;;;;;;0.65;0.20;;;;;;;27.02;34.24;100697.87;146705;584;46017;-75
2021/05/27 10:46:08;;;;;;;0.00;0.00;;;;;;;27.14;34.57;100693.97;146712;587;45020;-75
2021/05/27 10:48:47;;;;;;;0.10;0.10;;;;;;;27.24;33.98;100693.06;146707;567;46015;-75
2021/05/27 10:51:32;;;;;;;0.00;0.00;;;;;;;27.23;34.26;100702.13;146708;569;46020;-76
2021/05/27 10:54:08;;;;;;;0.10;0.10;;;;;;;27.24;33.59;100687.66;146708;584;46014;-76
2021/05/27 10:56:47;;;;;;;0.10;0.10;;;;;;;27.24;34.26;100687.66;146713;585;45021;-77
2021/05/27 10:59:19;;;;;;;0.10;0.10;;;;;;;27.22;34.24;100689.69;146708;591;46019;-75
2021/05/27 11:01:51;;;;;;;0.00;0.00;;;;;;;27.26;33.48;100689.22;146714;565;45020;-75
2021/05/27 11:04:34;;;;;;;0.20;0.20;;;;;;;27.35;34.10;100692.81;146706;569;46017;-75
2021/05/27 11:07:21;;;;;;;0.05;0.05;;;;;;;27.53;33.07;100693.72;146711;578;46010;-75
2021/05/27 11:09:54;;;;;;;0.68;0.30;;;;;;;27.68;32.19;100693.16;146708;571;46016;-74
2021/05/27 11:12:35;;;;;;;0.10;0.10;;;;;;;28.32;32.42;100688.47;146711;644;46021;-74
2021/05/27 11:15:14;;;;;;;0.00;0.00;;;;;;;29.32;30.17;100690.59;146709;592;46014;-72
2021/05/27 11:18:02;;;;;;;0.13;0.13;;;;;;;29.72;29.41;100674.56;146710;588;45020;-73
2021/05/27 11:20:34;;;;;;;0.10;0.10;;;;;;;29.97;28.78;100688.09;146707;617;46017;-74
2021/05/27 11:23:20;;;;;;;0.10;0.10;;;;;;;30.04;29.00;100676.44;146710;588;46020;-74
2021/05/27 11:25:51;;;;;;;0.10;0.10;;;;;;;30.07;28.54;100677.91;146708;589;46016;-73
2021/05/27 11:28:26;;;;;;;0.00;0.00;;;;;;;29.96;28.31;100654.75;146710;575;46021;-74
2021/05/27 11:30:58;;;;;;;0.00;0.00;;;;;;;30.05;28.13;100669.97;146705;596;46016;-73
2021/05/27 11:33:32;;;;;;;0.10;0.10;;;;;;;29.99;28.77;100667.97;146711;641;47009;-73
2021/05/27 11:36:07;;;;;;;0.20;0.20;;;;;;;29.59;29.54;100620.13;146709;692;46010;-92
2021/05/27 11:39:56;;;;;;;0.10;0.10;;;;;;;29.62;29.46;100671.16;250813;65;376149;-84
2021/05/27 11:42:27;;;;;;;0.57;0.50;;;;;;;29.64;30.65;100669.97;146729;61;82362;-90
2021/05/27 11:45:02;;;;;;;0.20;0.20;;;;;;;29.17;32.35;100633.59;146712;591;45029;-88
2021/05/27 11:48:24;;;;;;;1.95;0.37;;;;;;;29.23;31.58;100640.19;146663;65;66404;-82
2021/05/27 11:51:20;;;;;;;0.30;0.20;;;;;;;29.27;32.62;100638.03;150533;61;70778;-80
2021/05/27 11:53:56;;;;;;;0.37;0.30;;;;;;;29.27;32.12;100640.75;146707;571;46016;-81
2021/05/27 11:58:43;;;;;;;0.30;0.30;;;;;;;29.50;31.36;100632.81;208440;65;537353;-53
2021/05/27 12:01:23;;;;;;;0.10;0.10;;;;;;;29.60;31.35;100632.63;146702;693;47016;-53
2021/05/27 12:04:23;;;;;;;0.37;0.37;;;;;;;29.68;31.97;100630.75;146706;576;47020;-52
2021/05/27 12:07:17;;;;;;;0.17;0.17;;;;;;;29.82;31.32;100612.16;146709;570;46014;-52